This is the latest recevied weather packets stored in our database for station/object K0QED. If no packets are shown the sender has not sent any weather packets the latest 1 day(s).
| Time | Temp. | Humidity | Pressure | Rain* | Wind** | Luminosity | Snow |
|---|---|---|---|---|---|---|---|
| 1778009946 | 0.56° C | 99% | 1013.9 hPa | 0 mm | 1.34 m/s, 295° | 118 W/m² | - |
| 1778009644 | 0.56° C | 99% | 1014.1 hPa | 0 mm | 0 m/s | 102 W/m² | - |
| 1778009341 | 0.56° C | 99% | 1013.9 hPa | 0 mm | 0.89 m/s, 173° | 109 W/m² | - |
| 1778009039 | 0.56° C | 99% | 1014 hPa | 0 mm | 0.45 m/s, 197° | 110 W/m² | - |
| 1778008736 | 1.11° C | 99% | 1013.9 hPa | 0 mm | 0.89 m/s, 181° | 146 W/m² | - |
| 1778008435 | 1.11° C | 99% | 1013.9 hPa | 0 mm | 1.34 m/s, 188° | 183 W/m² | - |
| 1778008131 | 0.56° C | 99% | 1014 hPa | 0 mm | 0 m/s | 134 W/m² | - |
| 1778007827 | 0.56° C | 99% | 1013.9 hPa | 0 mm | 0.89 m/s, 126° | 118 W/m² | - |
| 1778007522 | 0.56° C | 99% | 1014.1 hPa | 0 mm | 0 m/s | 115 W/m² | - |
| 1778007219 | 0.56° C | 99% | 1014.1 hPa | 0 mm | 0.89 m/s, 125° | 100 W/m² | - |
| 1778006915 | 0.56° C | 99% | 1014.1 hPa | 0 mm | 0 m/s | 97 W/m² | - |
| 1778006613 | 0.56° C | 99% | 1014.2 hPa | 0 mm | 0.45 m/s, 157° | 89 W/m² | - |
| 1778006310 | 0.56° C | 99% | 1014.1 hPa | 1.27 mm | 0 m/s | 106 W/m² | - |
| 1778006006 | 0.56° C | 99% | 1014.2 hPa | 1.27 mm | 0.89 m/s, 156° | 82 W/m² | - |
| 1778005703 | 0.56° C | 99% | 1014.6 hPa | 0 mm | 0 m/s | 95 W/m² | - |
| 1778005400 | 0.56° C | 99% | 1014.7 hPa | 0 mm | 0 m/s | 88 W/m² | - |
| 1778005097 | 0.56° C | 99% | 1014.9 hPa | 0 mm | 0.45 m/s, 327° | 86 W/m² | - |
| 1778004794 | 0.56° C | 99% | 1015 hPa | 0 mm | 0.89 m/s, 240° | 88 W/m² | - |
| 1778004490 | 0.56° C | 99% | 1014.5 hPa | 1.78 mm | 0.89 m/s, 175° | 109 W/m² | - |
| 1778004187 | 0.56° C | 99% | 1015 hPa | 1.78 mm | 0 m/s | 111 W/m² | - |
| 1778003883 | 0.56° C | 99% | 1014.7 hPa | 0 mm | 0 m/s | 88 W/m² | - |
| 1778003580 | 0.56° C | 98% | 1014.6 hPa | 1.27 mm | 0 m/s | 83 W/m² | - |
| 1778003276 | 1.11° C | 98% | 1014.6 hPa | 1.27 mm | 0 m/s | 72 W/m² | - |
| 1778002974 | 1.11° C | 98% | 1014.7 hPa | 1.78 mm | 0 m/s | 81 W/m² | - |
| 1778002670 | 1.11° C | 98% | 1014.9 hPa | 1.78 mm | 0 m/s | 85 W/m² | - |
* Rain latest hour (hover to see other rain measurements)
** Current wind speed in m/s (hover to see current wind gust speed)